createdAt,value
2018-02-17T00:00:13.229Z,64.03
2018-02-17T00:02:45.732Z,64.23
2018-02-17T00:05:18.261Z,64.24
2018-02-17T00:07:50.774Z,64.17
2018-02-17T00:10:23.328Z,64.25
2018-02-17T00:12:55.827Z,64.23
2018-02-17T00:15:28.362Z,64.19
2018-02-17T00:18:00.860Z,64.21
2018-02-17T00:20:33.381Z,64.16
2018-02-17T00:23:06.887Z,64.10
2018-02-17T00:25:39.414Z,64.17
2018-02-17T00:28:11.924Z,64.07
2018-02-17T00:30:44.448Z,64.11
2018-02-17T00:33:16.951Z,64.14
2018-02-17T00:35:50.371Z,64.04
2018-02-17T00:38:22.881Z,64.09
2018-02-17T00:40:55.404Z,64.21
2018-02-17T00:43:27.907Z,64.10
2018-02-17T00:46:00.440Z,63.89
2018-02-17T00:48:32.949Z,63.79
2018-02-17T00:51:05.487Z,64.12
2018-02-17T00:53:38.013Z,64.09
2018-02-17T00:56:10.547Z,64.11
2018-02-17T00:58:44.024Z,64.15
2018-02-17T01:01:16.551Z,64.07
2018-02-17T01:03:49.042Z,64.05
2018-02-17T01:06:21.560Z,64.23
2018-02-17T01:08:54.066Z,64.22
2018-02-17T01:11:26.586Z,64.22
2018-02-17T01:13:59.085Z,64.15
2018-02-17T01:16:31.605Z,64.15
2018-02-17T01:19:04.113Z,64.20
2018-02-17T01:21:36.635Z,64.20
2018-02-17T01:24:09.135Z,63.98
2018-02-17T01:26:41.667Z,63.91
2018-02-17T01:29:14.168Z,64.04
2018-02-17T01:31:46.703Z,63.23
2018-02-17T01:34:19.206Z,63.61
2018-02-17T01:36:51.729Z,64.12
2018-02-17T01:39:24.235Z,64.25
2018-02-17T01:41:56.779Z,64.12
2018-02-17T01:44:29.273Z,64.19
2018-02-17T01:47:01.810Z,64.15
2018-02-17T01:49:34.348Z,64.14
2018-02-17T01:52:06.864Z,64.19
2018-02-17T01:54:39.378Z,64.18
2018-02-17T01:57:11.974Z,64.13
2018-02-17T01:59:44.484Z,64.34
2018-02-17T02:02:17.032Z,64.23
2018-02-17T02:04:49.516Z,63.85
2018-02-17T02:07:22.029Z,63.89
2018-02-17T02:09:54.544Z,63.95
2018-02-17T02:12:27.068Z,63.87
2018-02-17T02:14:59.571Z,63.89
2018-02-17T02:17:32.089Z,63.93
2018-02-17T02:20:04.586Z,64.02
2018-02-17T02:22:37.137Z,64.00
2018-02-17T02:25:09.656Z,63.91
2018-02-17T02:27:42.201Z,64.21
2018-02-17T02:30:14.757Z,64.26
2018-02-17T02:32:47.282Z,64.43
2018-02-17T02:35:19.801Z,64.36
2018-02-17T02:37:52.327Z,64.44
2018-02-17T02:40:24.827Z,64.40
2018-02-17T02:42:57.347Z,64.29
2018-02-17T02:45:29.844Z,64.14
2018-02-17T02:48:02.364Z,64.21
2018-02-17T02:50:34.918Z,64.22
2018-02-17T02:53:07.450Z,63.96
2018-02-17T02:55:39.954Z,63.60
2018-02-17T02:58:12.482Z,64.18
2018-02-17T03:00:44.994Z,64.19
2018-02-17T03:03:17.534Z,64.21
2018-02-17T03:05:50.034Z,63.92
2018-02-17T03:08:22.564Z,64.10
2018-02-17T03:10:55.102Z,64.18
2018-02-17T03:13:27.621Z,64.13
2018-02-17T03:16:00.159Z,64.08
2018-02-17T03:18:32.658Z,62.53
2018-02-17T03:21:05.184Z,63.78
2018-02-17T03:23:37.709Z,64.04
2018-02-17T03:26:10.234Z,64.59
2018-02-17T03:28:42.755Z,64.49
2018-02-17T03:31:15.294Z,64.55
2018-02-17T03:33:47.794Z,64.48
2018-02-17T03:36:20.318Z,64.52
2018-02-17T03:38:52.815Z,64.27
2018-02-17T03:41:25.339Z,64.29
2018-02-17T03:43:57.850Z,64.19
2018-02-17T03:46:30.384Z,64.21
2018-02-17T03:49:02.877Z,64.28
2018-02-17T03:51:35.412Z,64.32
2018-02-17T03:54:07.918Z,64.22
2018-02-17T03:56:40.443Z,63.92
2018-02-17T03:59:12.943Z,63.94
2018-02-17T04:01:45.472Z,64.03
2018-02-17T04:04:17.978Z,63.98
2018-02-17T04:06:50.504Z,63.78
2018-02-17T04:09:22.998Z,63.89
2018-02-17T04:11:55.526Z,63.97
2018-02-17T04:14:29.046Z,64.10
2018-02-17T04:17:01.584Z,64.09
2018-02-17T04:19:34.092Z,64.09
2018-02-17T04:22:06.613Z,63.93
2018-02-17T04:24:39.117Z,63.95
2018-02-17T04:27:11.642Z,63.83
2018-02-17T04:29:44.199Z,63.19
2018-02-17T04:32:16.727Z,63.89
2018-02-17T04:34:49.234Z,63.65
2018-02-17T04:37:21.780Z,64.00
2018-02-17T04:39:56.683Z,64.17
2018-02-17T04:45:46.276Z,63.88
2018-02-17T04:48:24.387Z,63.85
2018-02-17T04:51:02.442Z,63.86
2018-02-17T04:53:40.886Z,63.99
2018-02-17T04:56:18.920Z,63.93
2018-02-17T05:02:05.910Z,63.85
2018-02-17T05:04:38.440Z,63.89
2018-02-17T05:10:24.264Z,63.92
2018-02-17T05:12:56.784Z,63.86
2018-02-17T05:15:30.666Z,63.93
2018-02-17T05:21:22.756Z,63.95
2018-02-17T05:27:07.654Z,63.79
2018-02-17T05:29:40.682Z,63.65
2018-02-17T05:32:14.945Z,63.78
2018-02-17T05:34:52.993Z,63.88
2018-02-17T05:37:25.496Z,63.83
2018-02-17T05:39:58.437Z,63.95
2018-02-17T05:42:33.555Z,63.91
2018-02-17T05:45:08.597Z,63.99
2018-02-17T05:47:57.749Z,64.13
2018-02-17T05:50:31.197Z,63.98
2018-02-17T05:53:03.715Z,64.01
2018-02-17T05:55:36.244Z,64.09
2018-02-17T05:58:08.751Z,63.68
2018-02-17T06:00:41.263Z,63.87
2018-02-17T06:03:13.828Z,63.07
2018-02-17T06:05:46.355Z,61.86
2018-02-17T06:08:18.881Z,63.96
2018-02-17T06:10:51.444Z,64.65
2018-02-17T06:13:23.967Z,64.52
2018-02-17T06:15:56.482Z,64.16
2018-02-17T06:18:29.014Z,63.99
2018-02-17T06:21:01.519Z,63.91
2018-02-17T06:23:34.040Z,63.90
2018-02-17T06:26:06.558Z,63.81
2018-02-17T06:28:39.149Z,63.90
2018-02-17T06:31:12.449Z,63.85
2018-02-17T06:33:44.976Z,63.86
2018-02-17T06:36:17.481Z,63.90
2018-02-17T06:38:50.000Z,63.87
2018-02-17T06:41:22.510Z,64.01
2018-02-17T06:43:55.031Z,64.00
2018-02-17T06:46:27.531Z,63.82
2018-02-17T06:49:00.064Z,63.67
2018-02-17T06:51:32.563Z,63.69
2018-02-17T06:54:05.087Z,63.81
2018-02-17T06:56:37.589Z,63.52
2018-02-17T06:59:10.112Z,63.52
2018-02-17T07:01:42.630Z,63.86
2018-02-17T07:04:15.173Z,63.71
2018-02-17T07:06:47.702Z,63.58
2018-02-17T07:09:20.233Z,63.79
2018-02-17T07:11:52.744Z,63.69
2018-02-17T07:14:26.343Z,63.62
2018-02-17T07:16:58.870Z,63.77
2018-02-17T07:19:31.401Z,63.76
2018-02-17T07:22:03.916Z,63.62
2018-02-17T07:24:36.450Z,63.38
2018-02-17T07:27:09.004Z,63.50
2018-02-17T07:29:41.521Z,63.54
2018-02-17T07:32:14.028Z,63.56
2018-02-17T07:34:46.558Z,63.53
2018-02-17T07:37:19.065Z,62.99
2018-02-17T07:39:51.581Z,63.86
2018-02-17T07:42:24.080Z,64.05
2018-02-17T07:44:56.613Z,63.58
2018-02-17T07:47:29.411Z,64.15
2018-02-17T07:50:01.960Z,64.20
2018-02-17T07:52:34.462Z,63.85
2018-02-17T07:55:06.987Z,63.74
2018-02-17T07:57:39.479Z,63.27
2018-02-17T08:00:12.025Z,63.49
2018-02-17T08:02:44.555Z,63.97
2018-02-17T08:05:17.096Z,64.00
2018-02-17T08:07:49.594Z,64.04
2018-02-17T08:10:22.616Z,64.16
2018-02-17T08:12:55.115Z,64.24
2018-02-17T08:15:27.697Z,64.16
2018-02-17T08:18:00.202Z,64.21
2018-02-17T08:20:32.723Z,64.33
2018-02-17T08:23:05.227Z,63.71
2018-02-17T08:25:37.760Z,63.60
2018-02-17T08:28:15.200Z,63.31
2018-02-17T08:30:47.735Z,62.05
2018-02-17T08:33:20.244Z,63.25
2018-02-17T08:35:52.760Z,63.58
2018-02-17T08:38:25.271Z,63.51
2018-02-17T08:40:57.791Z,62.97
2018-02-17T08:43:30.325Z,64.06
2018-02-17T08:46:02.849Z,64.14
2018-02-17T08:48:35.354Z,63.91
2018-02-17T08:51:08.634Z,64.24
2018-02-17T08:53:41.160Z,63.39
2018-02-17T08:56:13.707Z,63.34
2018-02-17T08:58:46.214Z,63.05
2018-02-17T09:01:18.735Z,62.63
2018-02-17T09:03:51.264Z,63.54
2018-02-17T09:06:23.792Z,63.78
2018-02-17T09:08:56.356Z,63.12
2018-02-17T09:11:28.974Z,63.38
2018-02-17T09:14:01.490Z,63.22
2018-02-17T09:16:34.822Z,63.19
2018-02-17T09:19:08.277Z,63.05
2018-02-17T09:21:40.803Z,63.47
2018-02-17T09:24:13.320Z,63.79
2018-02-17T09:26:45.870Z,64.06
2018-02-17T09:29:18.370Z,63.14
2018-02-17T09:31:51.064Z,63.91
2018-02-17T09:34:23.593Z,64.05
2018-02-17T09:36:56.094Z,63.62
2018-02-17T09:39:28.614Z,63.11
2018-02-17T09:42:01.122Z,62.85
2018-02-17T09:44:33.639Z,62.74
2018-02-17T09:47:06.278Z,62.32
2018-02-17T09:49:38.816Z,62.39
2018-02-17T09:52:11.423Z,62.41
2018-02-17T09:54:43.952Z,62.04
2018-02-17T09:57:16.464Z,62.17
2018-02-17T09:59:48.994Z,62.15
2018-02-17T10:02:21.521Z,62.25
2018-02-17T10:07:32.954Z,62.09
2018-02-17T10:10:05.479Z,62.05
2018-02-17T10:12:37.983Z,61.65
2018-02-17T10:15:10.508Z,61.71
2018-02-17T10:17:43.012Z,61.67
2018-02-17T10:20:15.574Z,61.57
2018-02-17T10:22:48.098Z,61.74
2018-02-17T10:25:20.623Z,61.32
2018-02-17T10:27:53.122Z,61.55
2018-02-17T10:30:25.826Z,61.58
2018-02-17T10:32:58.336Z,61.56
2018-02-17T10:35:30.956Z,61.61
2018-02-17T10:38:03.377Z,61.21
2018-02-17T10:40:35.939Z,61.01
2018-02-17T10:43:08.428Z,60.64
2018-02-17T10:45:41.020Z,60.85
2018-02-17T10:48:13.839Z,60.67
2018-02-17T10:50:46.666Z,60.95
2018-02-17T10:53:20.603Z,61.19
2018-02-17T10:55:53.269Z,55.40
2018-02-17T10:58:25.852Z,60.26
2018-02-17T11:00:59.133Z,60.28
2018-02-17T11:03:31.984Z,58.42
2018-02-17T11:06:04.511Z,60.77
2018-02-17T11:08:36.999Z,60.37
2018-02-17T11:11:09.549Z,59.88
2018-02-17T11:13:42.048Z,59.91
2018-02-17T11:16:14.675Z,59.35
2018-02-17T11:18:48.258Z,57.81
2018-02-17T11:21:20.785Z,57.56
2018-02-17T11:23:53.518Z,57.68
2018-02-17T11:26:26.327Z,58.13
2018-02-17T11:29:00.978Z,56.50
2018-02-17T11:31:33.657Z,56.43
2018-02-17T11:34:06.332Z,56.71
2018-02-17T11:36:38.971Z,55.51
2018-02-17T11:39:11.926Z,56.45
2018-02-17T11:41:44.709Z,56.65
2018-02-17T11:44:17.324Z,57.08
2018-02-17T11:46:50.209Z,54.66
2018-02-17T11:49:22.924Z,53.33
2018-02-17T11:51:55.682Z,52.10
2018-02-17T11:54:28.195Z,52.89
2018-02-17T11:57:00.726Z,49.56
2018-02-17T11:59:33.593Z,48.58
2018-02-17T12:02:06.278Z,48.75
2018-02-17T12:04:38.874Z,41.14
2018-02-17T12:07:11.486Z,47.72
2018-02-17T12:09:44.001Z,44.65
2018-02-17T12:12:16.598Z,43.70
2018-02-17T12:14:51.235Z,44.99
2018-02-17T12:17:24.115Z,34.29
2018-02-17T12:19:56.626Z,43.21
2018-02-17T12:22:29.139Z,38.34
2018-02-17T12:25:02.691Z,46.38
2018-02-17T12:27:35.658Z,46.42
2018-02-17T12:30:08.198Z,47.01
2018-02-17T12:32:40.994Z,47.32
2018-02-17T12:35:13.646Z,47.23
2018-02-17T12:37:46.629Z,47.31
2018-02-17T12:40:19.396Z,42.88
2018-02-17T12:42:52.426Z,46.71
2018-02-17T12:45:25.179Z,47.51
2018-02-17T12:47:57.707Z,48.24
2018-02-17T12:50:30.632Z,47.00
2018-02-17T12:53:03.205Z,47.06
2018-02-17T12:55:35.796Z,48.49
2018-02-17T12:58:08.668Z,47.61
2018-02-17T13:00:41.135Z,47.32
2018-02-17T13:03:13.661Z,47.74
2018-02-17T13:05:46.291Z,47.36
2018-02-17T13:08:18.811Z,47.74
2018-02-17T13:10:51.323Z,47.50
2018-02-17T13:13:23.832Z,47.52
2018-02-17T13:15:56.333Z,48.35
2018-02-17T13:18:31.713Z,46.93
2018-02-17T13:21:04.247Z,47.31
2018-02-17T13:23:36.841Z,47.00
2018-02-17T13:26:09.366Z,47.00
2018-02-17T13:28:41.883Z,47.47
2018-02-17T13:31:14.441Z,47.27
2018-02-17T13:33:46.962Z,46.55
2018-02-17T13:36:19.497Z,47.14
2018-02-17T13:38:52.031Z,45.80
2018-02-17T13:41:24.539Z,43.53
2018-02-17T13:43:57.150Z,43.81
2018-02-17T13:46:29.658Z,43.93
2018-02-17T13:49:02.192Z,46.41
2018-02-17T13:51:34.685Z,46.63
2018-02-17T13:54:07.196Z,46.27
2018-02-17T13:56:39.696Z,46.04
2018-02-17T13:59:12.204Z,40.61
2018-02-17T14:01:44.712Z,44.28
2018-02-17T14:04:17.254Z,44.50
2018-02-17T14:06:49.751Z,44.23
2018-02-17T14:09:22.259Z,44.65
2018-02-17T14:11:54.882Z,46.27
2018-02-17T14:14:27.397Z,45.76
2018-02-17T14:16:59.959Z,45.50
2018-02-17T14:19:32.471Z,45.84
2018-02-17T14:22:04.972Z,43.54
2018-02-17T14:24:37.492Z,44.57
2018-02-17T14:27:10.114Z,45.41
2018-02-17T14:29:43.455Z,45.52
2018-02-17T14:32:15.956Z,45.59
2018-02-17T14:34:48.467Z,44.41
2018-02-17T14:37:20.970Z,44.74
2018-02-17T14:39:53.494Z,44.71
2018-02-17T14:42:25.994Z,45.00
2018-02-17T14:44:58.510Z,43.79
2018-02-17T14:47:31.015Z,45.40
2018-02-17T14:50:03.519Z,44.93
2018-02-17T14:52:36.021Z,45.30
2018-02-17T14:55:08.539Z,44.80
2018-02-17T14:57:41.052Z,44.88
2018-02-17T15:00:13.569Z,45.15
2018-02-17T15:02:46.061Z,45.82
2018-02-17T15:05:18.592Z,45.83
2018-02-17T15:07:51.171Z,45.89
2018-02-17T15:10:23.654Z,44.82
2018-02-17T15:12:56.147Z,45.32
2018-02-17T15:15:28.648Z,45.22
2018-02-17T15:18:01.140Z,45.60
2018-02-17T15:20:33.675Z,45.11
2018-02-17T15:23:06.203Z,45.37
2018-02-17T15:25:38.723Z,45.53
2018-02-17T15:28:11.222Z,45.08
2018-02-17T15:30:43.749Z,44.96
2018-02-17T15:33:16.256Z,44.60
2018-02-17T15:35:48.781Z,44.55
2018-02-17T15:38:21.299Z,45.05
2018-02-17T15:40:53.805Z,45.13
2018-02-17T15:43:26.300Z,45.59
2018-02-17T15:45:58.833Z,45.11
2018-02-17T15:48:31.341Z,45.07
2018-02-17T15:51:03.875Z,44.92
2018-02-17T15:53:36.384Z,44.95
2018-02-17T15:56:08.919Z,44.74
2018-02-17T15:58:41.411Z,45.25
2018-02-17T16:01:13.936Z,45.39
2018-02-17T16:03:46.427Z,45.53
2018-02-17T16:06:18.941Z,45.48
2018-02-17T16:08:51.446Z,45.24
2018-02-17T16:11:23.975Z,45.56
2018-02-17T16:13:56.878Z,45.74
2018-02-17T16:16:29.385Z,46.28
2018-02-17T16:19:01.928Z,46.43
2018-02-17T16:21:34.445Z,46.40
2018-02-17T16:24:06.956Z,46.20
2018-02-17T16:26:39.481Z,46.64
2018-02-17T16:29:11.984Z,47.11
2018-02-17T16:31:44.502Z,47.24
2018-02-17T16:34:16.991Z,47.03
2018-02-17T16:36:49.504Z,47.61
2018-02-17T16:39:22.001Z,47.99
2018-02-17T16:41:54.518Z,48.67
2018-02-17T16:44:27.031Z,48.73
2018-02-17T16:46:59.534Z,48.69
2018-02-17T16:49:32.023Z,48.61
2018-02-17T16:52:04.550Z,48.74
2018-02-17T16:54:37.056Z,48.99
2018-02-17T16:57:09.590Z,48.83
2018-02-17T16:59:42.086Z,49.19
2018-02-17T17:02:14.657Z,49.41
2018-02-17T17:04:47.141Z,49.49
2018-02-17T17:07:19.653Z,49.66
2018-02-17T17:09:52.267Z,49.77
2018-02-17T17:12:24.796Z,49.79
2018-02-17T17:14:57.313Z,49.71
2018-02-17T17:17:29.840Z,49.66
2018-02-17T17:20:02.343Z,49.62
2018-02-17T17:22:34.852Z,49.68
2018-02-17T17:25:07.356Z,49.93
2018-02-17T17:30:18.592Z,49.50
2018-02-17T17:32:51.095Z,49.41
2018-02-17T17:35:23.595Z,49.50
2018-02-17T17:37:56.130Z,49.84
2018-02-17T17:40:28.621Z,49.95
2018-02-17T17:43:01.153Z,49.80
2018-02-17T17:45:33.692Z,49.96
2018-02-17T17:48:06.209Z,50.02
2018-02-17T17:50:38.700Z,50.07
2018-02-17T17:53:11.200Z,50.16
2018-02-17T17:55:43.844Z,50.19
2018-02-17T17:58:16.405Z,50.75
2018-02-17T18:00:48.904Z,50.85
2018-02-17T18:03:21.423Z,50.43
2018-02-17T18:05:53.931Z,50.40
2018-02-17T18:08:26.472Z,50.36
2018-02-17T18:10:58.957Z,50.44
2018-02-17T18:13:31.472Z,50.65
2018-02-17T18:16:04.033Z,50.67
2018-02-17T18:18:36.579Z,50.60
2018-02-17T18:21:09.071Z,51.25
2018-02-17T18:23:41.597Z,51.21
2018-02-17T18:26:14.136Z,51.28
2018-02-17T18:28:46.664Z,51.20
2018-02-17T18:31:19.185Z,51.30
2018-02-17T18:33:51.707Z,51.19
2018-02-17T18:36:24.235Z,51.47
2018-02-17T18:38:56.748Z,51.63
2018-02-17T18:41:29.232Z,51.91
2018-02-17T18:44:01.765Z,51.92
2018-02-17T18:46:34.281Z,51.94
2018-02-17T18:49:06.804Z,51.77
2018-02-17T18:51:39.290Z,51.58
2018-02-17T18:54:11.813Z,52.77
2018-02-17T18:56:44.318Z,52.64
2018-02-17T18:59:16.848Z,52.47
2018-02-17T19:01:49.351Z,52.07
2018-02-17T19:04:21.867Z,52.25
2018-02-17T19:06:54.362Z,52.79
2018-02-17T19:09:26.892Z,52.63
2018-02-17T19:11:59.433Z,52.46
2018-02-17T19:14:31.964Z,52.33
2018-02-17T19:17:04.462Z,52.42
2018-02-17T19:19:36.991Z,52.74
2018-02-17T19:22:09.550Z,52.80
2018-02-17T19:24:42.063Z,52.48
2018-02-17T19:27:14.566Z,52.17
2018-02-17T19:29:47.110Z,52.11
2018-02-17T19:32:19.614Z,52.27
2018-02-17T19:34:52.143Z,52.04
2018-02-17T19:37:24.649Z,52.06
2018-02-17T19:39:57.166Z,52.18
2018-02-17T19:42:29.674Z,52.02
2018-02-17T19:45:02.187Z,52.21
2018-02-17T19:47:34.721Z,52.21
2018-02-17T19:50:07.236Z,52.85
2018-02-17T19:52:39.759Z,53.01
2018-02-17T19:55:12.256Z,52.92
2018-02-17T19:57:45.382Z,54.68
2018-02-17T20:00:17.894Z,54.59
2018-02-17T20:02:50.437Z,54.06
2018-02-17T20:05:22.929Z,53.59
2018-02-17T20:07:55.446Z,53.77
2018-02-17T20:10:27.953Z,54.00
2018-02-17T20:13:00.471Z,53.46
2018-02-17T20:15:32.963Z,53.34
2018-02-17T20:18:05.497Z,53.19
2018-02-17T20:20:38.014Z,53.40
2018-02-17T20:23:10.541Z,54.23
2018-02-17T20:25:43.050Z,53.77
2018-02-17T20:28:15.571Z,54.34
2018-02-17T20:30:48.067Z,53.90
2018-02-17T20:33:20.589Z,53.59
2018-02-17T20:35:53.110Z,54.69
2018-02-17T20:38:25.630Z,54.00
2018-02-17T20:40:58.138Z,53.82
2018-02-17T20:43:30.699Z,53.70
2018-02-17T20:46:03.186Z,53.33
2018-02-17T20:48:35.720Z,54.56
2018-02-17T20:51:08.221Z,54.27
2018-02-17T20:53:40.749Z,54.16
2018-02-17T20:56:13.267Z,53.90
2018-02-17T20:58:45.789Z,54.07
2018-02-17T21:01:18.317Z,54.97
2018-02-17T21:03:50.824Z,54.84
2018-02-17T21:06:23.349Z,54.47
2018-02-17T21:08:55.876Z,54.95
2018-02-17T21:11:28.374Z,54.81
2018-02-17T21:14:00.893Z,55.14
2018-02-17T21:16:33.453Z,54.89
2018-02-17T21:19:05.951Z,54.99
2018-02-17T21:21:38.460Z,55.71
2018-02-17T21:24:11.003Z,55.68
2018-02-17T21:26:43.518Z,55.15
2018-02-17T21:29:16.030Z,54.79
2018-02-17T21:31:48.527Z,54.61
2018-02-17T21:34:21.059Z,54.46
2018-02-17T21:36:53.563Z,54.40
2018-02-17T21:39:26.088Z,55.21
2018-02-17T21:41:58.589Z,55.65
2018-02-17T21:44:31.125Z,55.32
2018-02-17T21:47:03.630Z,55.07
2018-02-17T21:49:36.198Z,55.38
2018-02-17T21:52:08.705Z,55.30
2018-02-17T21:54:42.041Z,55.01
2018-02-17T21:57:14.584Z,54.70
2018-02-17T21:59:47.110Z,54.73
2018-02-17T22:02:19.713Z,54.74
2018-02-17T22:04:52.247Z,54.86
2018-02-17T22:07:24.741Z,55.54
2018-02-17T22:09:57.268Z,55.38
2018-02-17T22:12:29.817Z,55.37
2018-02-17T22:15:02.461Z,55.31
2018-02-17T22:17:34.959Z,55.02
2018-02-17T22:20:07.491Z,56.12
2018-02-17T22:22:39.998Z,55.59
2018-02-17T22:25:12.512Z,55.44
2018-02-17T22:27:45.082Z,55.13
2018-02-17T22:30:17.624Z,54.71
2018-02-17T22:32:50.140Z,54.85
2018-02-17T22:35:22.705Z,54.72
2018-02-17T22:37:55.198Z,54.87
2018-02-17T22:40:27.713Z,54.80
2018-02-17T22:43:00.210Z,54.70
2018-02-17T22:45:32.759Z,54.63
2018-02-17T22:48:05.284Z,55.16
2018-02-17T22:50:37.829Z,55.04
2018-02-17T22:53:10.340Z,55.07
2018-02-17T22:55:42.883Z,55.29
2018-02-17T22:58:15.391Z,55.29
2018-02-17T23:00:47.932Z,55.22
2018-02-17T23:03:20.668Z,55.18
2018-02-17T23:05:53.383Z,55.31
2018-02-17T23:08:26.233Z,55.25
2018-02-17T23:10:58.890Z,55.26
2018-02-17T23:13:31.415Z,55.37
2018-02-17T23:16:03.933Z,55.39
2018-02-17T23:18:36.451Z,55.52
2018-02-17T23:21:08.993Z,55.17
2018-02-17T23:23:41.545Z,55.19
2018-02-17T23:26:14.073Z,55.17
2018-02-17T23:28:47.048Z,55.37
2018-02-17T23:31:19.765Z,55.27
2018-02-17T23:33:52.282Z,55.16
2018-02-17T23:36:25.028Z,55.08
2018-02-17T23:38:57.681Z,55.95
2018-02-17T23:41:30.618Z,55.52
2018-02-17T23:44:03.243Z,55.39
2018-02-17T23:46:35.701Z,55.42
2018-02-17T23:49:08.231Z,55.65
2018-02-17T23:51:40.728Z,55.47
2018-02-17T23:54:13.242Z,55.52
2018-02-17T23:56:45.733Z,55.52
2018-02-17T23:59:19.269Z,56.10
